Terminal Aerodrome Forecast
Issued by NWS

Home | Current Version | Previous Version | Text Only | Print | Product List | Glossary On
Versions: 1 2 3 4 5 6 7 8 9 10 11 12 13 14 15 16
000
FTUS44 KBMX 270529
TAFEET
TAF
KEET 270529Z 2706/2806 18005KT P6SM FEW090
     FM270800 18003KT 6SM BR BKN007 OVC012
      TEMPO 2711/2714 4SM BR OVC004
     FM271500 18008G16KT P6SM OVC020
     FM272100 20011G18KT P6SM VCTS BKN050CB=

USA.gov is the U.S. government's official web portal to all federal, state and local government web resources and services.